KCKV/CKV METAR and TAF weather

Enter ICAO airport designator
Station Type Date Time Source
KCKV METAR 2019/09/20 19:52 UTC NOAA

KCKV 201952Z AUTO 26006KT 10SM OVC050 31/17 A3016 RMK AO2 SLP208 T03110167


Station Type Date Time Source
KCKV Decoded METAR 2019/09/20 19:52 UTC NOAA

CLARKSVILLE OUTLAW FIELD, TN, United States (KCKV) 36-37N 87-25W 165M
Sep 20, 2019 - 03:52 PM EDT / 2019.09.20 1952 UTC
Wind: from the W (260 degrees) at 7 MPH (6 KT):0
Visibility: 10 mile(s):0
Sky conditions: overcast
Temperature: 88.0 F (31.1 C)
Dew Point: 62.1 F (16.7 C)
Relative Humidity: 42%
Pressure (altimeter): 30.16 in. Hg (1021 hPa)
ob: KCKV 201952Z AUTO 26006KT 10SM OVC050 31/17 A3016 RMK AO2 SLP208 T03110167
cycle: 20

Station Type Date Time Source
KCKV TAF 2019/09/20 18:22 UTC NOAA

TAF KCKV 201720Z 2018/2118 18011KT P6SM BKN050 BKN250
FM210000 17004KT P6SM SCT250
FM211400 19010KT P6SM SCT200

Example: see airport list